sensor_id;sensor_type;location;lat;lon;timestamp;pressure;altitude;pressure_sealevel;temperature;humidity
14242;BME280;7205;50.864;12.766;2022-12-07T00:01:43;97451.06;;;3.55;96.41
14242;BME280;7205;50.864;12.766;2022-12-07T00:04:12;97448.53;;;3.53;96.84
14242;BME280;7205;50.864;12.766;2022-12-07T00:06:41;97448.44;;;3.55;96.70
14242;BME280;7205;50.864;12.766;2022-12-07T00:09:10;97448.53;;;3.53;95.78
14242;BME280;7205;50.864;12.766;2022-12-07T00:11:38;97434.97;;;3.50;95.58
14242;BME280;7205;50.864;12.766;2022-12-07T00:14:07;97433.88;;;3.52;95.53
14242;BME280;7205;50.864;12.766;2022-12-07T00:16:34;97431.38;;;3.51;95.94
14242;BME280;7205;50.864;12.766;2022-12-07T00:19:03;97435.78;;;3.50;95.45
14242;BME280;7205;50.864;12.766;2022-12-07T00:21:31;97431.53;;;3.49;96.40
14242;BME280;7205;50.864;12.766;2022-12-07T00:23:59;97420.25;;;3.49;95.52
14242;BME280;7205;50.864;12.766;2022-12-07T00:26:28;97427.41;;;3.47;95.41
14242;BME280;7205;50.864;12.766;2022-12-07T00:29:00;97425.75;;;3.46;95.81
14242;BME280;7205;50.864;12.766;2022-12-07T00:31:29;97427.53;;;3.45;95.25
14242;BME280;7205;50.864;12.766;2022-12-07T00:33:57;97425.91;;;3.44;95.17
14242;BME280;7205;50.864;12.766;2022-12-07T00:36:25;97412.16;;;3.42;95.61
14242;BME280;7205;50.864;12.766;2022-12-07T00:38:53;97414.34;;;3.47;96.34
14242;BME280;7205;50.864;12.766;2022-12-07T00:41:22;97418.47;;;3.49;95.25
14242;BME280;7205;50.864;12.766;2022-12-07T00:43:49;97413.25;;;3.49;95.73
14242;BME280;7205;50.864;12.766;2022-12-07T00:46:17;97409.81;;;3.49;95.20
14242;BME280;7205;50.864;12.766;2022-12-07T00:48:45;97411.50;;;3.50;94.91
14242;BME280;7205;50.864;12.766;2022-12-07T00:51:13;97408.03;;;3.49;94.95
14242;BME280;7205;50.864;12.766;2022-12-07T00:53:42;97401.06;;;3.50;95.29
14242;BME280;7205;50.864;12.766;2022-12-07T00:56:12;97405.28;;;3.51;94.67
14242;BME280;7205;50.864;12.766;2022-12-07T00:58:39;97400.50;;;3.46;94.47
14242;BME280;7205;50.864;12.766;2022-12-07T01:01:07;97394.72;;;3.43;94.24
14242;BME280;7205;50.864;12.766;2022-12-07T01:03:34;97395.81;;;3.40;94.46
14242;BME280;7205;50.864;12.766;2022-12-07T01:06:02;97390.59;;;3.31;93.66
14242;BME280;7205;50.864;12.766;2022-12-07T01:08:29;97391.69;;;3.28;93.98
14242;BME280;7205;50.864;12.766;2022-12-07T01:11:04;97407.75;;;3.24;93.42
14242;BME280;7205;50.864;12.766;2022-12-07T01:13:32;97400.75;;;3.15;93.87
14242;BME280;7205;50.864;12.766;2022-12-07T01:16:01;97397.97;;;3.07;92.98
14242;BME280;7205;50.864;12.766;2022-12-07T01:18:29;97397.81;;;2.99;92.41
14242;BME280;7205;50.864;12.766;2022-12-07T01:20:58;97395.63;;;2.85;93.02
14242;BME280;7205;50.864;12.766;2022-12-07T01:23:25;97405.72;;;2.78;92.76
14242;BME280;7205;50.864;12.766;2022-12-07T01:25:54;97406.41;;;2.71;92.78
14242;BME280;7205;50.864;12.766;2022-12-07T01:28:25;97394.97;;;2.62;92.70
14242;BME280;7205;50.864;12.766;2022-12-07T01:30:57;97389.75;;;2.52;93.06
14242;BME280;7205;50.864;12.766;2022-12-07T01:33:24;97390.97;;;2.48;93.45
14242;BME280;7205;50.864;12.766;2022-12-07T01:35:52;97389.56;;;2.44;93.89
14242;BME280;7205;50.864;12.766;2022-12-07T01:38:19;97389.97;;;2.40;93.67
14242;BME280;7205;50.864;12.766;2022-12-07T01:40:53;97394.34;;;2.39;93.84
14242;BME280;7205;50.864;12.766;2022-12-07T01:43:21;97388.19;;;2.40;94.65
14242;BME280;7205;50.864;12.766;2022-12-07T01:45:50;97392.84;;;2.46;95.64
14242;BME280;7205;50.864;12.766;2022-12-07T01:48:20;97399.19;;;2.53;95.19
14242;BME280;7205;50.864;12.766;2022-12-07T01:50:50;97394.97;;;2.62;96.01
14242;BME280;7205;50.864;12.766;2022-12-07T01:53:18;97392.81;;;2.67;95.62
14242;BME280;7205;50.864;12.766;2022-12-07T01:55:48;97396.81;;;2.71;96.50
14242;BME280;7205;50.864;12.766;2022-12-07T01:58:17;97394.88;;;2.73;96.47
14242;BME280;7205;50.864;12.766;2022-12-07T02:00:44;97390.75;;;2.71;94.89
14242;BME280;7205;50.864;12.766;2022-12-07T02:03:16;97381.81;;;2.64;94.71
14242;BME280;7205;50.864;12.766;2022-12-07T02:05:46;97377.38;;;2.54;94.16
14242;BME280;7205;50.864;12.766;2022-12-07T02:08:13;97379.69;;;2.48;93.76
14242;BME280;7205;50.864;12.766;2022-12-07T02:10:40;97373.63;;;2.38;93.64
14242;BME280;7205;50.864;12.766;2022-12-07T02:13:11;97363.88;;;2.30;94.37
14242;BME280;7205;50.864;12.766;2022-12-07T02:15:47;97370.56;;;2.23;93.65
14242;BME280;7205;50.864;12.766;2022-12-07T02:18:23;97361.75;;;2.15;93.21
14242;BME280;7205;50.864;12.766;2022-12-07T02:21:00;97363.34;;;2.06;94.22
14242;BME280;7205;50.864;12.766;2022-12-07T02:23:58;97364.72;;;2.01;94.24
14242;BME280;7205;50.864;12.766;2022-12-07T02:29:47;97356.53;;;1.85;93.43
14242;BME280;7205;50.864;12.766;2022-12-07T02:32:18;97349.25;;;1.79;93.78
14242;BME280;7205;50.864;12.766;2022-12-07T02:34:54;97350.44;;;1.75;93.86
14242;BME280;7205;50.864;12.766;2022-12-07T02:37:31;97338.88;;;1.68;94.56
14242;BME280;7205;50.864;12.766;2022-12-07T02:40:07;97342.72;;;1.64;94.29
14242;BME280;7205;50.864;12.766;2022-12-07T02:42:39;97341.31;;;1.60;94.06
14242;BME280;7205;50.864;12.766;2022-12-07T02:45:10;97345.94;;;1.56;94.53
14242;BME280;7205;50.864;12.766;2022-12-07T02:47:41;97349.63;;;1.54;94.70
14242;BME280;7205;50.864;12.766;2022-12-07T02:50:10;97346.47;;;1.50;93.86
14242;BME280;7205;50.864;12.766;2022-12-07T02:52:37;97340.56;;;1.48;94.57
14242;BME280;7205;50.864;12.766;2022-12-07T02:55:05;97345.03;;;1.46;94.83
14242;BME280;7205;50.864;12.766;2022-12-07T02:57:42;97339.13;;;1.44;94.87
14242;BME280;7205;50.864;12.766;2022-12-07T03:00:16;97344.91;;;1.48;95.23
14242;BME280;7205;50.864;12.766;2022-12-07T03:02:51;97343.03;;;1.50;95.18
14242;BME280;7205;50.864;12.766;2022-12-07T03:05:43;97338.38;;;1.53;95.31
14242;BME280;7205;50.864;12.766;2022-12-07T03:08:18;97346.50;;;1.60;95.52
14242;BME280;7205;50.864;12.766;2022-12-07T03:10:52;97337.50;;;1.64;95.60
14242;BME280;7205;50.864;12.766;2022-12-07T03:13:24;97338.75;;;1.69;95.92
14242;BME280;7205;50.864;12.766;2022-12-07T03:15:58;97333.31;;;1.72;95.50
14242;BME280;7205;50.864;12.766;2022-12-07T03:18:30;97331.28;;;1.76;95.29
14242;BME280;7205;50.864;12.766;2022-12-07T03:21:02;97325.00;;;1.78;95.90
14242;BME280;7205;50.864;12.766;2022-12-07T03:23:32;97325.69;;;1.80;95.03
14242;BME280;7205;50.864;12.766;2022-12-07T03:26:03;97324.72;;;1.81;95.13
14242;BME280;7205;50.864;12.766;2022-12-07T03:28:33;97315.97;;;1.82;94.99
14242;BME280;7205;50.864;12.766;2022-12-07T03:31:06;97311.56;;;1.83;94.94
14242;BME280;7205;50.864;12.766;2022-12-07T03:33:39;97316.66;;;1.84;94.96
14242;BME280;7205;50.864;12.766;2022-12-07T03:36:11;97320.91;;;1.85;94.54
14242;BME280;7205;50.864;12.766;2022-12-07T03:38:44;97320.66;;;1.88;94.83
14242;BME280;7205;50.864;12.766;2022-12-07T03:41:17;97322.19;;;1.91;94.02
14242;BME280;7205;50.864;12.766;2022-12-07T03:43:45;97317.41;;;1.96;94.42
14242;BME280;7205;50.864;12.766;2022-12-07T03:46:17;97314.81;;;1.96;94.11
14242;BME280;7205;50.864;12.766;2022-12-07T03:48:52;97311.81;;;2.00;93.99
14242;BME280;7205;50.864;12.766;2022-12-07T03:51:24;97315.78;;;2.04;93.83
14242;BME280;7205;50.864;12.766;2022-12-07T03:53:56;97306.78;;;2.08;94.49
14242;BME280;7205;50.864;12.766;2022-12-07T03:56:26;97300.34;;;2.12;94.59
14242;BME280;7205;50.864;12.766;2022-12-07T03:58:54;97299.97;;;2.17;93.82
14242;BME280;7205;50.864;12.766;2022-12-07T04:01:24;97292.72;;;2.20;93.62
14242;BME280;7205;50.864;12.766;2022-12-07T04:03:51;97295.03;;;2.23;93.56
14242;BME280;7205;50.864;12.766;2022-12-07T04:06:18;97279.00;;;2.28;93.92
14242;BME280;7205;50.864;12.766;2022-12-07T04:08:45;97289.84;;;2.33;93.42
14242;BME280;7205;50.864;12.766;2022-12-07T04:11:11;97285.19;;;2.36;93.40
14242;BME280;7205;50.864;12.766;2022-12-07T04:13:38;97279.47;;;2.42;93.28
14242;BME280;7205;50.864;12.766;2022-12-07T04:16:19;97270.69;;;2.43;92.51
14242;BME280;7205;50.864;12.766;2022-12-07T04:18:47;97266.31;;;2.44;92.58
14242;BME280;7205;50.864;12.766;2022-12-07T04:21:14;97263.16;;;2.40;90.99
14242;BME280;7205;50.864;12.766;2022-12-07T04:23:41;97266.97;;;2.36;91.26
14242;BME280;7205;50.864;12.766;2022-12-07T04:26:08;97263.16;;;2.31;90.03
14242;BME280;7205;50.864;12.766;2022-12-07T04:28:34;97255.16;;;2.23;89.54
14242;BME280;7205;50.864;12.766;2022-12-07T04:31:01;97261.03;;;2.15;90.34
14242;BME280;7205;50.864;12.766;2022-12-07T04:33:28;97259.91;;;2.08;89.37
14242;BME280;7205;50.864;12.766;2022-12-07T04:35:56;97260.69;;;1.99;89.81
14242;BME280;7205;50.864;12.766;2022-12-07T04:38:23;97262.06;;;1.94;89.41
14242;BME280;7205;50.864;12.766;2022-12-07T04:40:50;97253.81;;;1.89;89.11
14242;BME280;7205;50.864;12.766;2022-12-07T04:43:17;97251.50;;;1.86;89.86
14242;BME280;7205;50.864;12.766;2022-12-07T04:45:46;97252.56;;;1.83;89.71
14242;BME280;7205;50.864;12.766;2022-12-07T04:48:13;97254.19;;;1.84;90.29
14242;BME280;7205;50.864;12.766;2022-12-07T04:50:39;97251.50;;;1.86;90.50
14242;BME280;7205;50.864;12.766;2022-12-07T04:53:08;97242.44;;;1.90;90.64
14242;BME280;7205;50.864;12.766;2022-12-07T04:55:34;97244.13;;;2.00;90.77
14242;BME280;7205;50.864;12.766;2022-12-07T04:58:01;97244.72;;;2.13;91.23
14242;BME280;7205;50.864;12.766;2022-12-07T05:00:28;97236.78;;;2.24;91.91
14242;BME280;7205;50.864;12.766;2022-12-07T05:02:55;97233.09;;;2.36;91.91
14242;BME280;7205;50.864;12.766;2022-12-07T05:05:22;97234.91;;;2.45;91.37
14242;BME280;7205;50.864;12.766;2022-12-07T05:07:49;97244.25;;;2.58;91.33
14242;BME280;7205;50.864;12.766;2022-12-07T05:10:17;97235.75;;;2.65;91.28
14242;BME280;7205;50.864;12.766;2022-12-07T05:12:44;97233.97;;;2.75;90.73
14242;BME280;7205;50.864;12.766;2022-12-07T05:15:12;97232.47;;;2.82;90.62
14242;BME280;7205;50.864;12.766;2022-12-07T05:17:39;97234.50;;;2.88;90.15
14242;BME280;7205;50.864;12.766;2022-12-07T05:20:07;97242.09;;;2.91;89.75
14242;BME280;7205;50.864;12.766;2022-12-07T05:22:34;97224.38;;;2.95;89.54
14242;BME280;7205;50.864;12.766;2022-12-07T05:25:01;97230.25;;;2.97;89.62
14242;BME280;7205;50.864;12.766;2022-12-07T05:27:29;97222.19;;;3.00;88.96
14242;BME280;7205;50.864;12.766;2022-12-07T05:29:56;97223.53;;;3.04;88.87
14242;BME280;7205;50.864;12.766;2022-12-07T05:32:23;97228.47;;;3.07;89.35
14242;BME280;7205;50.864;12.766;2022-12-07T05:34:50;97224.22;;;3.06;89.23
14242;BME280;7205;50.864;12.766;2022-12-07T05:37:17;97225.84;;;3.07;88.63
14242;BME280;7205;50.864;12.766;2022-12-07T05:39:44;97223.94;;;3.09;89.06
14242;BME280;7205;50.864;12.766;2022-12-07T05:42:11;97211.19;;;3.06;88.09
14242;BME280;7205;50.864;12.766;2022-12-07T05:44:40;97209.41;;;3.06;89.06
14242;BME280;7205;50.864;12.766;2022-12-07T05:47:08;97211.19;;;3.06;88.86
14242;BME280;7205;50.864;12.766;2022-12-07T05:49:35;97216.41;;;3.06;88.76
14242;BME280;7205;50.864;12.766;2022-12-07T05:52:02;97218.03;;;3.07;88.62
14242;BME280;7205;50.864;12.766;2022-12-07T05:54:39;97221.47;;;3.07;88.76
14242;BME280;7205;50.864;12.766;2022-12-07T05:57:06;97220.78;;;3.05;88.71
14242;BME280;7205;50.864;12.766;2022-12-07T05:59:33;97214.88;;;3.03;89.69
14242;BME280;7205;50.864;12.766;2022-12-07T06:02:02;97213.09;;;3.04;89.14
14242;BME280;7205;50.864;12.766;2022-12-07T06:04:33;97213.25;;;3.02;89.82
14242;BME280;7205;50.864;12.766;2022-12-07T06:07:02;97212.41;;;3.02;89.90
14242;BME280;7205;50.864;12.766;2022-12-07T06:09:29;97219.97;;;3.05;89.59
14242;BME280;7205;50.864;12.766;2022-12-07T06:11:58;97213.25;;;3.02;89.92
14242;BME280;7205;50.864;12.766;2022-12-07T06:14:43;97215.84;;;3.02;90.39
14242;BME280;7205;50.864;12.766;2022-12-07T06:17:12;97214.88;;;3.03;90.67
14242;BME280;7205;50.864;12.766;2022-12-07T06:19:39;97216.81;;;3.01;90.93
14242;BME280;7205;50.864;12.766;2022-12-07T06:22:06;97212.56;;;3.00;91.23
14242;BME280;7205;50.864;12.766;2022-12-07T06:24:34;97209.25;;;2.98;91.37
14242;BME280;7205;50.864;12.766;2022-12-07T06:27:01;97217.91;;;2.99;91.60
14242;BME280;7205;50.864;12.766;2022-12-07T06:29:28;97212.28;;;2.94;91.80
14242;BME280;7205;50.864;12.766;2022-12-07T06:31:55;97212.28;;;2.94;91.49
14242;BME280;7205;50.864;12.766;2022-12-07T06:34:24;97212.16;;;2.95;91.69
14242;BME280;7205;50.864;12.766;2022-12-07T06:36:51;97226.31;;;2.93;91.26
14242;BME280;7205;50.864;12.766;2022-12-07T06:39:22;97214.91;;;2.94;92.05
14242;BME280;7205;50.864;12.766;2022-12-07T06:41:49;97215.88;;;2.93;91.82
14242;BME280;7205;50.864;12.766;2022-12-07T06:44:17;97214.22;;;2.92;92.13
14242;BME280;7205;50.864;12.766;2022-12-07T06:46:44;97216.69;;;2.93;92.95
14242;BME280;7205;50.864;12.766;2022-12-07T06:49:11;97224.38;;;2.95;92.87
14242;BME280;7205;50.864;12.766;2022-12-07T06:51:39;97239.06;;;2.96;93.39
14242;BME280;7205;50.864;12.766;2022-12-07T06:54:07;97237.41;;;2.95;92.77
14242;BME280;7205;50.864;12.766;2022-12-07T06:56:34;97240.69;;;2.97;93.05
14242;BME280;7205;50.864;12.766;2022-12-07T06:59:02;97237.41;;;2.95;92.64
14242;BME280;7205;50.864;12.766;2022-12-07T07:01:29;97243.28;;;2.97;93.85
14242;BME280;7205;50.864;12.766;2022-12-07T07:03:56;97246.59;;;2.99;93.97
14242;BME280;7205;50.864;12.766;2022-12-07T07:06:25;97256.75;;;3.02;93.54
14242;BME280;7205;50.864;12.766;2022-12-07T07:08:53;97250.72;;;3.01;94.32
14242;BME280;7205;50.864;12.766;2022-12-07T07:11:20;97252.22;;;3.04;93.47
14242;BME280;7205;50.864;12.766;2022-12-07T07:13:47;97243.31;;;3.06;94.46
14242;BME280;7205;50.864;12.766;2022-12-07T07:16:14;97257.84;;;3.09;93.90
14242;BME280;7205;50.864;12.766;2022-12-07T07:18:41;97250.56;;;3.12;94.65
14242;BME280;7205;50.864;12.766;2022-12-07T07:21:10;97253.19;;;3.12;94.34
14242;BME280;7205;50.864;12.766;2022-12-07T07:23:37;97253.03;;;3.14;94.57
14242;BME280;7205;50.864;12.766;2022-12-07T07:26:05;97263.03;;;3.18;94.92
14242;BME280;7205;50.864;12.766;2022-12-07T07:28:32;97267.47;;;3.18;94.41
14242;BME280;7205;50.864;12.766;2022-12-07T07:30:59;97254.13;;;3.21;94.63
14242;BME280;7205;50.864;12.766;2022-12-07T07:33:28;97260.84;;;3.23;94.87
14242;BME280;7205;50.864;12.766;2022-12-07T07:35:56;97262.75;;;3.31;95.18
14242;BME280;7205;50.864;12.766;2022-12-07T07:38:23;97259.19;;;3.32;94.68
14242;BME280;7205;50.864;12.766;2022-12-07T07:40:49;97253.97;;;3.32;94.78
14242;BME280;7205;50.864;12.766;2022-12-07T07:43:18;97268.38;;;3.36;94.60
14242;BME280;7205;50.864;12.766;2022-12-07T07:45:45;97256.97;;;3.37;94.69
14242;BME280;7205;50.864;12.766;2022-12-07T07:48:12;97263.84;;;3.38;94.34
14242;BME280;7205;50.864;12.766;2022-12-07T07:50:39;97269.47;;;3.43;94.68
14242;BME280;7205;50.864;12.766;2022-12-07T07:53:05;97254.91;;;3.40;94.52
14242;BME280;7205;50.864;12.766;2022-12-07T07:55:32;97266.03;;;3.42;94.45
14242;BME280;7205;50.864;12.766;2022-12-07T07:57:59;97265.91;;;3.44;94.05
14242;BME280;7205;50.864;12.766;2022-12-07T08:00:27;97267.56;;;3.45;94.33
14242;BME280;7205;50.864;12.766;2022-12-07T08:03:00;97267.56;;;3.45;95.02
14242;BME280;7205;50.864;12.766;2022-12-07T08:05:27;97264.81;;;3.46;94.75
14242;BME280;7205;50.864;12.766;2022-12-07T08:07:54;97270.56;;;3.50;94.20
14242;BME280;7205;50.864;12.766;2022-12-07T08:10:20;97268.91;;;3.49;94.61
14242;BME280;7205;50.864;12.766;2022-12-07T08:12:47;97271.91;;;3.54;95.05
14242;BME280;7205;50.864;12.766;2022-12-07T08:15:37;97265.59;;;3.56;94.46
14242;BME280;7205;50.864;12.766;2022-12-07T08:18:04;97267.94;;;3.59;94.42
14242;BME280;7205;50.864;12.766;2022-12-07T08:20:31;97278.78;;;3.64;94.32
14242;BME280;7205;50.864;12.766;2022-12-07T08:22:58;97267.06;;;3.68;94.60
14242;BME280;7205;50.864;12.766;2022-12-07T08:25:26;97270.22;;;3.72;94.50
14242;BME280;7205;50.864;12.766;2022-12-07T08:27:53;97268.16;;;3.75;94.61
14242;BME280;7205;50.864;12.766;2022-12-07T08:30:20;97273.91;;;3.79;94.02
14242;BME280;7205;50.864;12.766;2022-12-07T08:32:48;97265.94;;;3.80;94.69
14242;BME280;7205;50.864;12.766;2022-12-07T08:35:15;97277.75;;;3.84;94.26
14242;BME280;7205;50.864;12.766;2022-12-07T08:37:46;97286.81;;;3.90;94.38
14242;BME280;7205;50.864;12.766;2022-12-07T08:40:20;97283.63;;;3.96;94.78
14242;BME280;7205;50.864;12.766;2022-12-07T08:42:51;97283.72;;;4.04;94.88
14242;BME280;7205;50.864;12.766;2022-12-07T08:45:18;97279.56;;;4.11;94.92
14242;BME280;7205;50.864;12.766;2022-12-07T08:47:51;97279.28;;;4.14;94.30
14242;BME280;7205;50.864;12.766;2022-12-07T08:50:20;97286.16;;;4.15;93.97
14242;BME280;7205;50.864;12.766;2022-12-07T08:52:51;97279.50;;;4.21;93.57
14242;BME280;7205;50.864;12.766;2022-12-07T08:55:20;97269.06;;;4.21;93.73
14242;BME280;7205;50.864;12.766;2022-12-07T08:57:48;97279.75;;;4.27;93.19
14242;BME280;7205;50.864;12.766;2022-12-07T09:00:15;97279.34;;;4.32;93.18
14242;BME280;7205;50.864;12.766;2022-12-07T09:02:43;97284.81;;;4.38;93.41
14242;BME280;7205;50.864;12.766;2022-12-07T09:05:11;97281.59;;;4.44;92.63
14242;BME280;7205;50.864;12.766;2022-12-07T09:07:41;97272.34;;;4.50;92.98
14242;BME280;7205;50.864;12.766;2022-12-07T09:10:10;97277.13;;;4.54;92.52
14242;BME280;7205;50.864;12.766;2022-12-07T09:12:37;97268.72;;;4.60;92.24
14242;BME280;7205;50.864;12.766;2022-12-07T09:15:05;97275.38;;;4.72;92.67
14242;BME280;7205;50.864;12.766;2022-12-07T09:17:36;97267.63;;;4.80;92.82
14242;BME280;7205;50.864;12.766;2022-12-07T09:20:05;97283.91;;;4.92;91.73
14242;BME280;7205;50.864;12.766;2022-12-07T09:22:34;97262.69;;;4.95;90.77
14242;BME280;7205;50.864;12.766;2022-12-07T09:25:01;97268.13;;;5.01;90.33
14242;BME280;7205;50.864;12.766;2022-12-07T09:27:29;97266.88;;;5.05;90.60
14242;BME280;7205;50.864;12.766;2022-12-07T09:29:56;97271.13;;;5.06;89.92
14242;BME280;7205;50.864;12.766;2022-12-07T09:32:23;97269.50;;;5.05;89.30
14242;BME280;7205;50.864;12.766;2022-12-07T09:34:50;97261.94;;;5.02;89.19
14242;BME280;7205;50.864;12.766;2022-12-07T09:37:16;97261.94;;;5.02;89.07
14242;BME280;7205;50.864;12.766;2022-12-07T09:39:45;97265.22;;;5.04;88.72
14242;BME280;7205;50.864;12.766;2022-12-07T09:42:24;97263.59;;;5.03;88.32
14242;BME280;7205;50.864;12.766;2022-12-07T09:44:53;97262.91;;;5.01;88.59
14242;BME280;7205;50.864;12.766;2022-12-07T09:47:20;97272.22;;;5.04;88.33
14242;BME280;7205;50.864;12.766;2022-12-07T09:49:47;97265.06;;;5.06;88.22
14242;BME280;7205;50.864;12.766;2022-12-07T09:52:24;97258.03;;;5.06;88.07
14242;BME280;7205;50.864;12.766;2022-12-07T09:54:57;97266.13;;;5.13;88.35
14242;BME280;7205;50.864;12.766;2022-12-07T09:57:28;97255.34;;;5.16;87.72
14242;BME280;7205;50.864;12.766;2022-12-07T10:00:00;97247.50;;;5.16;87.35
14242;BME280;7205;50.864;12.766;2022-12-07T10:02:35;97253.91;;;5.22;87.23
14242;BME280;7205;50.864;12.766;2022-12-07T10:05:05;97249.22;;;5.25;87.24
14242;BME280;7205;50.864;12.766;2022-12-07T10:07:33;97242.34;;;5.24;87.04
14242;BME280;7205;50.864;12.766;2022-12-07T10:10:03;97241.50;;;5.24;86.60
14242;BME280;7205;50.864;12.766;2022-12-07T10:12:52;97235.59;;;5.22;86.16
14242;BME280;7205;50.864;12.766;2022-12-07T10:15:42;97233.44;;;5.17;85.55
14242;BME280;7205;50.864;12.766;2022-12-07T10:18:30;97235.41;;;5.15;85.82
14242;BME280;7205;50.864;12.766;2022-12-07T10:21:05;97228.00;;;5.10;85.19
14242;BME280;7205;50.864;12.766;2022-12-07T10:23:33;97235.19;;;5.08;85.02
14242;BME280;7205;50.864;12.766;2022-12-07T10:26:21;97229.63;;;5.11;85.91
14242;BME280;7205;50.864;12.766;2022-12-07T10:28:52;97237.50;;;5.11;85.53
14242;BME280;7205;50.864;12.766;2022-12-07T10:31:20;97232.25;;;5.11;85.43
14242;BME280;7205;50.864;12.766;2022-12-07T10:33:50;97224.94;;;5.15;85.25
14242;BME280;7205;50.864;12.766;2022-12-07T10:36:20;97228.22;;;5.17;85.65
14242;BME280;7205;50.864;12.766;2022-12-07T10:38:49;97225.97;;;5.22;86.11
14242;BME280;7205;50.864;12.766;2022-12-07T10:41:16;97231.56;;;5.27;85.74
14242;BME280;7205;50.864;12.766;2022-12-07T10:43:51;97221.78;;;5.29;84.88
14242;BME280;7205;50.864;12.766;2022-12-07T10:46:48;97214.03;;;5.28;84.28
14242;BME280;7205;50.864;12.766;2022-12-07T10:49:42;97219.28;;;5.28;84.12
14242;BME280;7205;50.864;12.766;2022-12-07T10:52:20;97218.31;;;5.29;84.03
14242;BME280;7205;50.864;12.766;2022-12-07T10:54:58;97212.09;;;5.30;83.94
14242;BME280;7205;50.864;12.766;2022-12-07T10:57:45;97213.28;;;5.35;84.17
14242;BME280;7205;50.864;12.766;2022-12-07T11:00:18;97204.03;;;5.41;84.43
14242;BME280;7205;50.864;12.766;2022-12-07T11:02:59;97197.47;;;5.45;84.38
14242;BME280;7205;50.864;12.766;2022-12-07T11:05:34;97203.91;;;5.50;84.21
14242;BME280;7205;50.864;12.766;2022-12-07T11:08:11;97214.91;;;5.54;83.70
14242;BME280;7205;50.864;12.766;2022-12-07T11:10:46;97205.75;;;5.58;83.08
14242;BME280;7205;50.864;12.766;2022-12-07T11:13:33;97205.44;;;5.61;82.88
14242;BME280;7205;50.864;12.766;2022-12-07T11:16:26;97205.97;;;5.64;82.92
14242;BME280;7205;50.864;12.766;2022-12-07T11:19:14;97208.59;;;5.64;82.26
14242;BME280;7205;50.864;12.766;2022-12-07T11:21:48;97201.34;;;5.58;81.54
14242;BME280;7205;50.864;12.766;2022-12-07T11:24:27;97209.66;;;5.54;81.40
14242;BME280;7205;50.864;12.766;2022-12-07T11:27:08;97201.59;;;5.47;80.64
14242;BME280;7205;50.864;12.766;2022-12-07T11:29:56;97199.13;;;5.46;81.13
14242;BME280;7205;50.864;12.766;2022-12-07T11:32:42;97185.69;;;5.41;81.57
14242;BME280;7205;50.864;12.766;2022-12-07T11:35:18;97187.31;;;5.42;81.18
14242;BME280;7205;50.864;12.766;2022-12-07T11:37:51;97191.88;;;5.40;80.74
14242;BME280;7205;50.864;12.766;2022-12-07T11:40:26;97187.94;;;5.36;80.90
14242;BME280;7205;50.864;12.766;2022-12-07T11:42:59;97186.97;;;5.37;80.88
14242;BME280;7205;50.864;12.766;2022-12-07T11:45:29;97180.09;;;5.36;81.20
14242;BME280;7205;50.864;12.766;2022-12-07T11:48:02;97197.78;;;5.42;80.85
14242;BME280;7205;50.864;12.766;2022-12-07T11:50:33;97188.16;;;5.42;80.69
14242;BME280;7205;50.864;12.766;2022-12-07T11:53:03;97178.47;;;5.43;80.73
14242;BME280;7205;50.864;12.766;2022-12-07T11:55:42;97176.53;;;5.45;80.77
14242;BME280;7205;50.864;12.766;2022-12-07T11:58:42;97171.47;;;5.43;80.26
14242;BME280;7205;50.864;12.766;2022-12-07T12:01:22;97167.06;;;5.44;80.16
14242;BME280;7205;50.864;12.766;2022-12-07T12:04:00;97169.19;;;5.48;80.33
14242;BME280;7205;50.864;12.766;2022-12-07T12:06:29;97166.41;;;5.50;80.38
14242;BME280;7205;50.864;12.766;2022-12-07T12:09:01;97170.22;;;5.55;80.77
14242;BME280;7205;50.864;12.766;2022-12-07T12:11:42;97166.69;;;5.64;80.37
14242;BME280;7205;50.864;12.766;2022-12-07T12:14:33;97153.94;;;5.69;80.28
14242;BME280;7205;50.864;12.766;2022-12-07T12:17:26;97155.56;;;5.70;80.04
14242;BME280;7205;50.864;12.766;2022-12-07T12:20:05;97157.88;;;5.73;79.70
14242;BME280;7205;50.864;12.766;2022-12-07T12:22:38;97152.13;;;5.70;79.06
14242;BME280;7205;50.864;12.766;2022-12-07T12:25:14;97160.81;;;5.70;78.92
14242;BME280;7205;50.864;12.766;2022-12-07T12:28:03;97147.19;;;5.59;78.78
14242;BME280;7205;50.864;12.766;2022-12-07T12:30:36;97155.53;;;5.62;78.55
14242;BME280;7205;50.864;12.766;2022-12-07T12:33:26;97171.06;;;5.56;78.52
14242;BME280;7205;50.864;12.766;2022-12-07T12:36:24;97144.69;;;5.49;77.95
14242;BME280;7205;50.864;12.766;2022-12-07T12:39:19;97156.59;;;5.44;77.75
14242;BME280;7205;50.864;12.766;2022-12-07T12:41:59;97143.13;;;5.39;77.98
14242;BME280;7205;50.864;12.766;2022-12-07T12:45:11;97160.03;;;5.44;78.22
14242;BME280;7205;50.864;12.766;2022-12-07T12:47:55;97142.31;;;5.38;78.13
14242;BME280;7205;50.864;12.766;2022-12-07T12:50:25;97143.97;;;5.39;77.80
14242;BME280;7205;50.864;12.766;2022-12-07T12:53:15;97138.88;;;5.38;78.22
14242;BME280;7205;50.864;12.766;2022-12-07T12:56:35;97135.84;;;5.50;78.15
14242;BME280;7205;50.864;12.766;2022-12-07T12:59:31;97135.72;;;5.60;78.27
14242;BME280;7205;50.864;12.766;2022-12-07T13:02:16;97124.91;;;5.63;77.83
14242;BME280;7205;50.864;12.766;2022-12-07T13:04:56;97132.66;;;5.64;77.13
14242;BME280;7205;50.864;12.766;2022-12-07T13:07:54;97123.28;;;5.62;76.92
14242;BME280;7205;50.864;12.766;2022-12-07T13:10:41;97122.09;;;5.56;77.34
14242;BME280;7205;50.864;12.766;2022-12-07T13:13:40;97128.50;;;5.54;76.63
14242;BME280;7205;50.864;12.766;2022-12-07T13:16:47;97125.38;;;5.50;76.43
14242;BME280;7205;50.864;12.766;2022-12-07T13:19:59;97125.53;;;5.49;76.07
14242;BME280;7205;50.864;12.766;2022-12-07T13:22:52;97116.50;;;5.43;75.80
14242;BME280;7205;50.864;12.766;2022-12-07T13:25:48;97127.94;;;5.42;76.16
14242;BME280;7205;50.864;12.766;2022-12-07T13:28:36;97126.28;;;5.41;76.14
14242;BME280;7205;50.864;12.766;2022-12-07T13:31:17;97116.97;;;5.39;75.97
14242;BME280;7205;50.864;12.766;2022-12-07T13:33:47;97130.56;;;5.42;75.79
14242;BME280;7205;50.864;12.766;2022-12-07T13:36:21;97129.91;;;5.40;75.64
14242;BME280;7205;50.864;12.766;2022-12-07T13:38:56;97123.16;;;5.38;75.62
14242;BME280;7205;50.864;12.766;2022-12-07T13:41:28;97125.16;;;5.44;75.62